Time;durP1;ratioP1;P1;durP2;ratioP2;P2;SDS_P1;SDS_P2;PMS_P1;PMS_P2;Temp;Humidity;BMP_temperature;BMP_pressure;BME280_temperature;BME280_humidity;BME280_pressure;Samples;Min_cycle;Max_cycle;Signal;HPM_P1;HPM_P2
2021/07/15 00:00:14;;;;;;;10.80;9.67;;;18.50;99.90;;;;;;5105578;28;20458;-66
2021/07/15 00:02:41;;;;;;;10.47;9.47;;;18.50;99.90;;;;;;5112368;28;20457;-64
2021/07/15 00:05:12;;;;;;;12.83;9.77;;;18.50;99.90;;;;;;5098632;28;20631;-63
2021/07/15 00:07:39;;;;;;;15.73;9.03;;;18.50;99.90;;;;;;5102421;28;20412;-64
2021/07/15 00:10:24;;;;;;;11.30;9.50;;;18.50;99.90;;;;;;5108077;28;20805;-64
2021/07/15 00:12:52;;;;;;;12.30;8.80;;;18.50;99.90;;;;;;5103042;28;20439;-64
2021/07/15 00:15:22;;;;;;;11.30;8.90;;;18.60;99.90;;;;;;5106949;28;20724;-64
2021/07/15 00:17:50;;;;;;;14.10;9.80;;;18.50;99.90;;;;;;5098812;28;20502;-63
2021/07/15 00:20:18;;;;;;;11.53;9.60;;;18.60;99.90;;;;;;5083432;28;20645;-63
2021/07/15 00:22:45;;;;;;;14.10;9.90;;;18.50;99.90;;;;;;5098911;28;20446;-64
2021/07/15 00:25:16;;;;;;;11.37;10.23;;;18.60;99.90;;;;;;5095867;28;20457;-64
2021/07/15 00:27:44;;;;;;;12.00;10.87;;;18.50;99.90;;;;;;5097948;28;20424;-66
2021/07/15 00:30:13;;;;;;;13.73;9.90;;;18.60;99.90;;;;;;5097266;28;20461;-65
2021/07/15 00:32:41;;;;;;;13.77;9.80;;;18.50;99.90;;;;;;5097775;28;20423;-65
2021/07/15 00:35:09;;;;;;;13.10;9.20;;;18.50;99.90;;;;;;5079664;28;20481;-65
2021/07/15 00:37:37;;;;;;;11.37;9.37;;;18.40;99.90;;;;;;5097951;28;20689;-64
2021/07/15 00:40:09;;;;;;;13.20;9.70;;;18.50;99.90;;;;;;5097828;28;20420;-65
2021/07/15 00:42:37;;;;;;;12.00;10.00;;;18.40;99.90;;;;;;5080607;28;20416;-64
2021/07/15 00:45:07;;;;;;;13.00;11.43;;;18.60;99.90;;;;;;5097926;28;20457;-63
2021/07/15 00:47:34;;;;;;;11.53;8.13;;;18.70;99.90;;;;;;5097918;28;20419;-64
2021/07/15 00:50:02;;;;;;;13.13;8.80;;;18.90;99.90;;;;;;5098074;28;20420;-63
2021/07/15 00:52:29;;;;;;;11.47;10.27;;;18.90;99.90;;;;;;5098648;28;20454;-65
2021/07/15 00:54:57;;;;;;;11.53;9.37;;;18.60;99.90;;;;;;5097395;28;20455;-64
2021/07/15 00:57:24;;;;;;;11.43;10.33;;;18.60;99.90;;;;;;5098714;28;20664;-65
2021/07/15 00:59:53;;;;;;;16.40;8.67;;;18.70;99.90;;;;;;5098053;28;20433;-64
2021/07/15 01:02:20;;;;;;;12.97;10.37;;;18.70;99.90;;;;;;5097901;28;20416;-64
2021/07/15 01:04:47;;;;;;;15.70;9.00;;;18.60;99.90;;;;;;5099114;28;20636;-65
2021/07/15 01:07:14;;;;;;;16.50;9.77;;;18.50;99.90;;;;;;5097660;28;20420;-65
2021/07/15 01:09:41;;;;;;;13.20;8.80;;;18.60;99.90;;;;;;5097676;28;20448;-64
2021/07/15 01:12:15;;;;;;;15.77;10.13;;;18.40;99.90;;;;;;5098194;28;20454;-64
2021/07/15 01:15:01;;;;;;;11.70;8.70;;;18.50;99.90;;;;;;5099008;28;20481;-64
2021/07/15 01:17:37;;;;;;;14.07;10.00;;;18.50;99.90;;;;;;5098390;28;20780;-64
2021/07/15 01:20:07;;;;;;;15.50;10.33;;;18.40;99.90;;;;;;5097936;28;20408;-65
2021/07/15 01:22:37;;;;;;;10.90;9.80;;;18.40;99.90;;;;;;5099554;28;20440;-64
2021/07/15 01:25:33;;;;;;;16.30;9.80;;;18.40;99.90;;;;;;5093840;28;20670;-64
2021/07/15 01:28:06;;;;;;;14.10;8.20;;;18.50;99.90;;;;;;5094993;28;20477;-64
2021/07/15 01:30:36;;;;;;;12.97;8.73;;;18.60;99.90;;;;;;5082420;28;20424;-64
2021/07/15 01:33:15;;;;;;;13.37;8.80;;;18.70;99.90;;;;;;5103486;28;20438;-64
2021/07/15 01:35:57;;;;;;;15.80;10.20;;;18.90;99.90;;;;;;5101175;28;20472;-65
2021/07/15 01:38:29;;;;;;;15.83;11.30;;;18.70;99.90;;;;;;5088982;28;20482;-64
2021/07/15 01:41:10;;;;;;;15.70;9.90;;;18.80;99.90;;;;;;5101540;28;20420;-64
2021/07/15 01:43:46;;;;;;;10.33;9.20;;;18.90;99.90;;;;;;5101724;28;20484;-65
2021/07/15 01:46:14;;;;;;;10.63;9.20;;;19.00;99.90;;;;;;5100826;28;20448;-64
2021/07/15 01:48:44;;;;;;;10.53;8.97;;;19.20;99.90;;;;;;5101169;28;20784;-65
2021/07/15 01:51:11;;;;;;;11.83;10.17;;;19.20;99.90;;;;;;5101443;28;20427;-67
2021/07/15 01:53:39;;;;;;;10.77;8.97;;;19.40;99.90;;;;;;5108536;28;20416;-65
2021/07/15 01:56:08;;;;;;;12.53;9.00;;;19.40;99.90;;;;;;5122004;28;20663;-65
2021/07/15 01:58:37;;;;;;;15.90;9.80;;;19.50;99.90;;;;;;5107441;28;20411;-66
2021/07/15 02:01:07;;;;;;;11.30;9.27;;;19.60;99.90;;;;;;5110013;28;20463;-64
2021/07/15 02:03:39;;;;;;;16.23;9.83;;;19.40;99.90;;;;;;5102396;28;20437;-64
2021/07/15 02:06:08;;;;;;;13.53;9.47;;;19.40;99.90;;;;;;5103991;28;20764;-66
2021/07/15 02:08:36;;;;;;;11.93;8.80;;;19.50;99.90;;;;;;5104669;28;20433;-65
2021/07/15 02:11:06;;;;;;;13.63;10.33;;;19.50;99.90;;;;;;5090873;28;20460;-65
2021/07/15 02:13:34;;;;;;;13.53;10.00;;;19.60;99.90;;;;;;5111970;28;20425;-64
2021/07/15 02:16:01;;;;;;;12.50;9.80;;;19.70;99.90;;;;;;5098042;28;20452;-65
2021/07/15 02:18:29;;;;;;;12.73;9.67;;;19.70;99.90;;;;;;5100563;28;20760;-66
2021/07/15 02:20:57;;;;;;;24.07;15.30;;;19.90;99.90;;;;;;5108522;28;20451;-64
2021/07/15 02:23:27;;;;;;;18.70;14.13;;;19.90;99.90;;;;;;5107449;28;20757;-66
2021/07/15 02:25:56;;;;;;;15.67;12.40;;;19.70;99.90;;;;;;5082784;28;20450;-64
2021/07/15 02:28:27;;;;;;;18.70;13.23;;;19.70;99.90;;;;;;5112537;28;20664;-65
2021/07/15 02:31:01;;;;;;;19.80;13.60;;;19.70;99.90;;;;;;5100810;28;20450;-64
2021/07/15 02:33:30;;;;;;;18.13;13.80;;;19.70;99.90;;;;;;5100130;28;20491;-64
2021/07/15 02:36:02;;;;;;;20.33;14.57;;;19.60;99.90;;;;;;5083581;28;20460;-65
2021/07/15 02:38:32;;;;;;;21.43;15.23;;;19.50;99.90;;;;;;5116762;28;20419;-64
2021/07/15 02:40:59;;;;;;;18.50;15.27;;;19.60;99.90;;;;;;5101231;28;20757;-64
2021/07/15 02:43:27;;;;;;;23.33;14.97;;;19.40;99.90;;;;;;5100470;28;20421;-66
2021/07/15 02:45:55;;;;;;;23.60;16.50;;;19.60;99.90;;;;;;5100806;28;20473;-65
2021/07/15 02:48:22;;;;;;;17.67;14.67;;;19.60;99.90;;;;;;5095947;28;20452;-65
2021/07/15 02:50:49;;;;;;;18.47;13.90;;;19.90;99.90;;;;;;5096512;28;20740;-65
2021/07/15 02:53:19;;;;;;;21.60;16.30;;;19.90;99.90;;;;;;5099654;28;20503;-65
2021/07/15 02:55:52;;;;;;;23.43;16.40;;;19.60;99.90;;;;;;5099716;28;20465;-64
2021/07/15 02:58:26;;;;;;;27.87;15.13;;;19.60;99.90;;;;;;5099483;28;20420;-64
2021/07/15 03:01:00;;;;;;;19.90;15.37;;;19.30;99.90;;;;;;5099209;28;20456;-65
2021/07/15 03:03:55;;;;;;;28.47;18.07;;;19.40;99.90;;;;;;5098299;28;20416;-64
2021/07/15 03:06:48;;;;;;;26.10;15.37;;;19.70;99.90;;;;;;5089620;28;20416;-65
2021/07/15 03:09:26;;;;;;;21.40;14.83;;;19.80;99.90;;;;;;5101692;28;20627;-65
2021/07/15 03:12:17;;;;;;;20.50;15.20;;;19.90;99.90;;;;;;5100161;28;20508;-64
2021/07/15 03:14:46;;;;;;;21.17;12.70;;;19.90;99.90;;;;;;5096845;28;20415;-64
2021/07/15 03:17:17;;;;;;;17.50;13.03;;;20.00;99.90;;;;;;5094544;28;20588;-64
2021/07/15 03:19:46;;;;;;;19.07;12.73;;;19.90;99.90;;;;;;5106836;28;20416;-64
2021/07/15 03:22:14;;;;;;;17.17;12.17;;;19.80;99.90;;;;;;5095521;28;20424;-64
2021/07/15 03:24:51;;;;;;;17.27;12.70;;;19.80;99.90;;;;;;5103579;28;20457;-66
2021/07/15 03:27:19;;;;;;;17.97;12.60;;;19.70;99.90;;;;;;5099363;28;20408;-65
2021/07/15 03:29:47;;;;;;;19.30;14.20;;;19.60;99.90;;;;;;5099424;28;20491;-64
2021/07/15 03:32:16;;;;;;;25.00;13.77;;;19.60;99.90;;;;;;5103644;28;20445;-65
2021/07/15 03:34:44;;;;;;;22.40;14.60;;;19.70;99.90;;;;;;5098739;28;20450;-65
2021/07/15 03:37:11;;;;;;;15.53;11.63;;;19.90;99.90;;;;;;5099318;28;20543;-65
2021/07/15 03:39:39;;;;;;;15.77;12.83;;;19.70;99.90;;;;;;5098481;28;20817;-64
2021/07/15 03:42:06;;;;;;;18.83;12.40;;;19.80;99.90;;;;;;5099073;28;21031;-65
2021/07/15 03:44:36;;;;;;;15.40;11.57;;;19.80;99.90;;;;;;5098210;28;20425;-64
2021/07/15 03:47:04;;;;;;;14.70;10.90;;;19.90;99.90;;;;;;5099551;28;20488;-64
2021/07/15 03:49:32;;;;;;;15.13;12.00;;;19.90;99.90;;;;;;5098940;28;20440;-64
2021/07/15 03:51:59;;;;;;;28.23;14.13;;;19.90;99.90;;;;;;5099245;28;20447;-64
2021/07/15 03:54:27;;;;;;;12.83;10.67;;;20.00;99.90;;;;;;5099245;28;20505;-64
2021/07/15 03:56:57;;;;;;;16.93;11.27;;;19.80;99.90;;;;;;5099745;28;20474;-65
2021/07/15 03:59:27;;;;;;;18.00;11.63;;;19.90;99.90;;;;;;5099376;28;20460;-64
2021/07/15 04:02:00;;;;;;;13.93;12.53;;;20.00;99.90;;;;;;5098821;28;20571;-64
2021/07/15 04:04:30;;;;;;;17.07;11.50;;;20.20;99.90;;;;;;5099119;28;20432;-64
2021/07/15 04:07:02;;;;;;;15.33;11.80;;;20.30;99.90;;;;;;5098919;28;20431;-64
2021/07/15 04:09:33;;;;;;;23.13;13.00;;;20.30;99.90;;;;;;5098592;28;20457;-64
2021/07/15 04:12:01;;;;;;;18.30;12.47;;;20.20;99.90;;;;;;5098642;28;20638;-65
2021/07/15 04:14:52;;;;;;;20.23;12.03;;;20.10;99.90;;;;;;5102360;28;20415;-65
2021/07/15 04:17:22;;;;;;;25.43;14.17;;;20.30;99.90;;;;;;5097526;28;20448;-65
2021/07/15 04:19:50;;;;;;;16.23;12.37;;;20.30;99.90;;;;;;5097638;28;20430;-65
2021/07/15 04:22:18;;;;;;;16.07;12.13;;;20.40;99.90;;;;;;5098296;28;20753;-65
2021/07/15 04:24:46;;;;;;;17.13;13.20;;;20.40;99.90;;;;;;5084058;28;20424;-65
2021/07/15 04:27:15;;;;;;;12.67;10.07;;;20.40;99.90;;;;;;5098878;28;20450;-66
2021/07/15 04:29:43;;;;;;;15.10;10.13;;;20.50;99.90;;;;;;5097921;28;20673;-64
2021/07/15 04:32:22;;;;;;;14.97;11.60;;;20.70;99.90;;;;;;5105236;28;20768;-65
2021/07/15 04:34:50;;;;;;;13.23;9.70;;;20.90;99.90;;;;;;5084425;28;20409;-65
2021/07/15 04:37:18;;;;;;;10.60;9.20;;;21.10;99.90;;;;;;5110411;28;20586;-65
2021/07/15 04:39:45;;;;;;;11.13;9.50;;;21.40;99.90;;;;;;5113476;28;20445;-65
2021/07/15 04:42:15;;;;;;;14.63;9.93;;;21.50;99.90;;;;;;5097918;28;20446;-66
2021/07/15 04:44:45;;;;;;;13.63;10.30;;;21.50;99.90;;;;;;5097961;28;20803;-65
2021/07/15 04:47:13;;;;;;;13.83;10.90;;;21.50;99.90;;;;;;5099460;28;20648;-65
2021/07/15 04:49:41;;;;;;;13.33;9.80;;;21.40;99.90;;;;;;5096697;28;20443;-66
2021/07/15 04:52:09;;;;;;;11.67;8.73;;;21.50;99.90;;;;;;5098050;28;20488;-65
2021/07/15 04:54:37;;;;;;;9.30;8.03;;;21.50;99.90;;;;;;5097891;28;20648;-65
2021/07/15 04:57:09;;;;;;;14.67;11.10;;;21.60;99.90;;;;;;5099818;28;20478;-65
2021/07/15 04:59:38;;;;;;;13.63;8.80;;;21.50;99.90;;;;;;5101365;28;20699;-66
2021/07/15 05:02:06;;;;;;;12.33;9.73;;;21.40;99.90;;;;;;5095208;28;20431;-65
2021/07/15 05:04:33;;;;;;;13.07;8.13;;;21.20;99.90;;;;;;5094975;28;20760;-65
2021/07/15 05:07:00;;;;;;;10.40;6.97;;;21.20;99.90;;;;;;5102120;28;20480;-66
2021/07/15 05:09:27;;;;;;;8.60;6.80;;;21.10;99.90;;;;;;5101400;28;20600;-65
2021/07/15 05:11:55;;;;;;;6.40;5.80;;;21.00;99.90;;;;;;5101360;28;20771;-65
2021/07/15 05:14:23;;;;;;;6.30;5.17;;;21.20;99.90;;;;;;5101729;28;20413;-65
2021/07/15 05:16:50;;;;;;;7.60;4.60;;;21.30;99.90;;;;;;5100364;28;20466;-65
2021/07/15 05:19:18;;;;;;;4.80;3.73;;;21.60;99.90;;;;;;5101574;28;20438;-67
2021/07/15 05:21:45;;;;;;;4.60;2.90;;;21.90;99.90;;;;;;5109782;28;20471;-64
2021/07/15 05:24:12;;;;;;;4.90;3.20;;;22.00;99.90;;;;;;5099914;28;20436;-66
2021/07/15 05:26:40;;;;;;;3.80;3.50;;;22.10;99.90;;;;;;5101177;28;20472;-66
2021/07/15 05:29:07;;;;;;;4.87;2.77;;;22.40;99.90;;;;;;5101083;28;20513;-66
2021/07/15 05:31:34;;;;;;;4.70;2.77;;;22.50;99.90;;;;;;5095538;28;20463;-66
2021/07/15 05:34:01;;;;;;;6.03;3.30;;;22.80;99.90;;;;;;5100522;28;20518;-64
2021/07/15 05:36:29;;;;;;;4.30;3.90;;;22.80;99.90;;;;;;5100004;28;20475;-65
2021/07/15 05:38:56;;;;;;;7.60;2.90;;;22.90;99.90;;;;;;5100600;28;20657;-66
2021/07/15 05:41:23;;;;;;;2.83;2.63;;;23.00;99.90;;;;;;5095275;28;20770;-65
2021/07/15 05:43:53;;;;;;;3.97;2.40;;;23.30;99.90;;;;;;5071466;28;20480;-65
2021/07/15 05:46:23;;;;;;;2.53;2.33;;;23.10;99.90;;;;;;5113804;28;20640;-66
2021/07/15 05:48:51;;;;;;;2.87;2.57;;;23.10;99.90;;;;;;5109570;28;20419;-66
2021/07/15 05:51:18;;;;;;;4.07;3.60;;;23.30;99.90;;;;;;5105007;28;20452;-66
2021/07/15 05:53:45;;;;;;;3.03;2.83;;;23.40;99.90;;;;;;5112477;28;20760;-66
2021/07/15 05:56:12;;;;;;;6.50;3.20;;;23.60;99.90;;;;;;5099492;28;20480;-69
2021/07/15 05:58:39;;;;;;;6.50;3.33;;;23.80;99.90;;;;;;5112034;28;20435;-65
2021/07/15 06:01:06;;;;;;;3.33;2.60;;;23.60;99.90;;;;;;5100471;28;20453;-64
2021/07/15 06:03:33;;;;;;;3.13;2.70;;;23.50;99.90;;;;;;5099239;28;20489;-64
2021/07/15 06:06:00;;;;;;;2.67;2.47;;;23.50;99.90;;;;;;5100022;28;20451;-65
2021/07/15 06:08:28;;;;;;;5.00;3.30;;;23.60;99.90;;;;;;5099060;28;20502;-63
2021/07/15 06:10:56;;;;;;;3.27;3.07;;;23.70;99.90;;;;;;5100278;28;20481;-65
2021/07/15 06:13:23;;;;;;;8.10;3.43;;;23.80;99.90;;;;;;5107175;28;20453;-65
2021/07/15 06:15:50;;;;;;;2.90;2.70;;;23.90;99.90;;;;;;5099031;28;20550;-66
2021/07/15 06:18:17;;;;;;;3.13;2.93;;;24.20;99.90;;;;;;5109979;28;20750;-66
2021/07/15 06:20:44;;;;;;;3.50;2.30;;;24.70;99.90;;;;;;5096279;28;20523;-66
2021/07/15 06:23:12;;;;;;;3.87;3.10;;;25.10;99.90;;;;;;5102977;28;20441;-66
2021/07/15 06:25:39;;;;;;;5.87;3.20;;;25.40;99.90;;;;;;5104368;28;20766;-67
2021/07/15 06:28:06;;;;;;;8.80;3.23;;;25.70;99.90;;;;;;5105072;28;20412;-68
2021/07/15 06:30:33;;;;;;;5.93;3.20;;;26.10;99.90;;;;;;5097323;28;20439;-67
2021/07/15 06:33:00;;;;;;;6.13;3.67;;;27.30;99.90;;;;;;5099021;28;20451;-66
2021/07/15 06:35:27;;;;;;;4.13;3.80;;;28.10;99.90;;;;;;5099051;28;20440;-66
2021/07/15 06:37:55;;;;;;;5.23;3.50;;;29.30;99.90;;;;;;5112908;28;20750;-66
2021/07/15 06:40:23;;;;;;;4.00;3.70;;;30.20;99.90;;;;;;5099339;28;20450;-66
2021/07/15 06:42:50;;;;;;;4.60;4.20;;;30.50;99.90;;;;;;5100775;28;20442;-64
2021/07/15 06:45:18;;;;;;;5.87;5.30;;;30.80;99.90;;;;;;5119523;28;20704;-66
2021/07/15 06:47:46;;;;;;;8.07;5.17;;;31.30;99.90;;;;;;5100977;28;20967;-64
2021/07/15 06:50:14;;;;;;;5.80;5.40;;;31.60;99.90;;;;;;5098777;28;20443;-66
2021/07/15 06:52:42;;;;;;;5.90;5.60;;;32.80;97.90;;;;;;5112789;28;20442;-66
2021/07/15 06:55:10;;;;;;;6.60;6.20;;;33.40;95.70;;;;;;5099386;28;20638;-65
2021/07/15 06:57:38;;;;;;;6.60;6.30;;;33.60;94.60;;;;;;5081239;28;20642;-66
2021/07/15 07:00:17;;;;;;;7.10;6.80;;;33.70;94.00;;;;;;5113044;28;20443;-65
2021/07/15 07:02:45;;;;;;;8.13;7.73;;;34.00;93.20;;;;;;5098782;28;20441;-65
2021/07/15 07:05:15;;;;;;;7.00;6.70;;;33.00;94.60;;;;;;5112930;28;20711;-66
2021/07/15 07:07:47;;;;;;;7.10;6.77;;;32.60;94.40;;;;;;5110347;28;20473;-66
2021/07/15 07:10:15;;;;;;;8.03;7.50;;;32.00;95.70;;;;;;5100681;28;20656;-66
2021/07/15 07:12:43;;;;;;;8.80;8.23;;;31.80;95.60;;;;;;5104148;28;20435;-66
2021/07/15 07:15:13;;;;;;;7.20;6.90;;;32.90;94.30;;;;;;5097577;28;20447;-65
2021/07/15 07:17:41;;;;;;;9.20;8.40;;;35.00;91.60;;;;;;5102231;28;20494;-66
2021/07/15 07:20:10;;;;;;;9.77;9.07;;;34.80;91.00;;;;;;5106402;28;20748;-65
2021/07/15 07:22:38;;;;;;;9.20;8.80;;;34.50;91.00;;;;;;5093118;28;20443;-65
2021/07/15 07:25:08;;;;;;;8.60;8.20;;;35.00;89.90;;;;;;5109182;28;20656;-66
2021/07/15 07:27:36;;;;;;;9.47;9.00;;;35.10;89.20;;;;;;5090100;28;20513;-66
2021/07/15 07:30:04;;;;;;;9.13;8.73;;;33.10;90.90;;;;;;5101079;28;20439;-66
2021/07/15 07:32:31;;;;;;;8.90;8.50;;;31.90;93.30;;;;;;5098664;28;20478;-66
2021/07/15 07:34:58;;;;;;;10.50;8.23;;;30.80;95.00;;;;;;5091226;28;20483;-66
2021/07/15 07:37:28;;;;;;;8.23;7.83;;;29.80;97.20;;;;;;5092228;28;20490;-67
2021/07/15 07:39:56;;;;;;;7.83;7.53;;;29.50;97.80;;;;;;5084618;28;20475;-65
2021/07/15 07:42:27;;;;;;;8.03;7.57;;;29.40;97.90;;;;;;5098266;28;20434;-66
2021/07/15 07:44:54;;;;;;;7.20;6.80;;;29.20;98.20;;;;;;5111968;28;20439;-64
2021/07/15 07:47:22;;;;;;;7.10;6.70;;;28.70;99.00;;;;;;5097873;28;20447;-65
2021/07/15 07:49:50;;;;;;;7.03;6.63;;;28.20;99.90;;;;;;5097929;28;20780;-65
2021/07/15 07:52:17;;;;;;;6.87;6.37;;;28.30;99.90;;;;;;5098862;28;20458;-66
2021/07/15 07:54:44;;;;;;;8.77;7.83;;;28.50;99.90;;;;;;5098193;28;20455;-65
2021/07/15 07:57:11;;;;;;;6.67;6.27;;;28.40;99.90;;;;;;5098815;28;20479;-65
2021/07/15 07:59:38;;;;;;;8.43;7.87;;;28.10;99.90;;;;;;5099819;28;20465;-66
2021/07/15 08:02:05;;;;;;;6.63;6.10;;;28.00;99.90;;;;;;5105225;28;20622;-66
2021/07/15 08:04:33;;;;;;;6.80;6.40;;;27.90;99.90;;;;;;5097350;28;20689;-64
2021/07/15 08:07:02;;;;;;;7.17;6.67;;;27.60;99.90;;;;;;5097936;28;20466;-65
2021/07/15 08:09:31;;;;;;;7.47;6.70;;;27.80;99.90;;;;;;5098406;28;20443;-66
2021/07/15 08:12:02;;;;;;;6.93;6.53;;;27.80;99.90;;;;;;5097784;28;20567;-65
2021/07/15 08:14:35;;;;;;;5.90;5.60;;;27.80;99.90;;;;;;5083924;28;20462;-66
2021/07/15 08:17:03;;;;;;;5.77;5.43;;;27.60;99.90;;;;;;5098224;28;20487;-65
2021/07/15 08:19:31;;;;;;;5.73;5.33;;;27.80;99.90;;;;;;5106331;28;20432;-65
2021/07/15 08:21:58;;;;;;;8.40;7.20;;;28.10;99.90;;;;;;5096378;28;20469;-65
2021/07/15 08:24:25;;;;;;;7.30;6.80;;;29.00;99.90;;;;;;5101529;28;20546;-65
2021/07/15 08:26:53;;;;;;;7.87;6.90;;;30.00;98.20;;;;;;5105865;28;20453;-66
2021/07/15 08:29:22;;;;;;;7.03;6.70;;;30.50;97.20;;;;;;5096609;28;20440;-64
2021/07/15 08:31:50;;;;;;;7.47;7.17;;;30.90;96.60;;;;;;5100878;28;20526;-64
2021/07/15 08:34:17;;;;;;;7.70;7.33;;;31.20;95.90;;;;;;5107176;28;20437;-65
2021/07/15 08:36:46;;;;;;;8.70;8.10;;;31.10;95.00;;;;;;5097949;28;20533;-65
2021/07/15 08:39:16;;;;;;;8.10;7.60;;;30.80;95.90;;;;;;5097766;28;20457;-64
2021/07/15 08:41:46;;;;;;;7.60;7.30;;;30.70;95.20;;;;;;5097757;28;20443;-65
2021/07/15 08:44:14;;;;;;;7.60;7.20;;;30.40;96.50;;;;;;5097410;28;20449;-65
2021/07/15 08:46:44;;;;;;;7.17;6.83;;;30.30;96.30;;;;;;5097456;28;20488;-64
2021/07/15 08:49:13;;;;;;;8.43;8.03;;;30.20;96.30;;;;;;5098245;28;20700;-65
2021/07/15 08:51:43;;;;;;;7.93;7.33;;;30.30;96.20;;;;;;5097172;28;20478;-65
2021/07/15 08:54:15;;;;;;;8.50;8.10;;;30.90;95.50;;;;;;5109459;28;20442;-63
2021/07/15 08:56:48;;;;;;;8.27;7.67;;;31.20;94.80;;;;;;5099734;28;20477;-64
2021/07/15 08:59:18;;;;;;;8.57;8.07;;;30.90;94.90;;;;;;5096872;28;20470;-65
2021/07/15 09:01:48;;;;;;;8.07;7.47;;;30.60;95.30;;;;;;5098468;28;20493;-64
2021/07/15 09:04:17;;;;;;;8.80;8.10;;;29.70;96.50;;;;;;5098755;28;20447;-63
2021/07/15 09:06:49;;;;;;;8.50;7.87;;;29.20;97.30;;;;;;5094008;28;20456;-65
2021/07/15 09:09:18;;;;;;;7.80;7.50;;;28.80;98.60;;;;;;5091472;28;20552;-65
2021/07/15 09:11:46;;;;;;;7.80;7.50;;;29.20;97.60;;;;;;5098706;28;20486;-64
2021/07/15 09:14:19;;;;;;;8.27;7.97;;;31.30;95.20;;;;;;5099120;28;20431;-64
2021/07/15 09:16:51;;;;;;;9.37;8.63;;;33.90;91.60;;;;;;5095737;28;20486;-64
2021/07/15 09:19:24;;;;;;;9.37;8.97;;;36.20;82.80;;;;;;5104397;28;20753;-64
2021/07/15 09:21:52;;;;;;;10.07;9.40;;;37.60;80.30;;;;;;5105296;28;20686;-63
2021/07/15 09:24:33;;;;;;;9.10;8.70;;;37.70;75.40;;;;;;5096994;28;20449;-64
2021/07/15 09:27:25;;;;;;;8.83;8.30;;;36.80;79.20;;;;;;5096301;28;20489;-63
2021/07/15 09:30:09;;;;;;;8.63;8.30;;;36.50;77.90;;;;;;5083424;28;20435;-63
2021/07/15 09:32:57;;;;;;;9.87;9.37;;;35.40;81.10;;;;;;5096904;28;20435;-63
2021/07/15 09:35:48;;;;;;;11.07;10.47;;;34.40;83.40;;;;;;5088176;28;20446;-65
2021/07/15 09:38:22;;;;;;;10.20;9.60;;;33.50;85.90;;;;;;5082915;28;20506;-64
2021/07/15 09:40:57;;;;;;;9.73;9.13;;;33.10;86.90;;;;;;5097102;28;20449;-64
2021/07/15 09:43:34;;;;;;;18.07;16.47;;;32.40;89.00;;;;;;5097711;28;20758;-64
2021/07/15 09:46:22;;;;;;;10.30;9.43;;;31.60;90.80;;;;;;5112452;28;20438;-65
2021/07/15 09:49:06;;;;;;;8.63;7.97;;;30.10;92.10;;;;;;5101500;28;20442;-64
2021/07/15 09:51:39;;;;;;;8.20;7.60;;;30.10;93.50;;;;;;5101225;28;20439;-64
2021/07/15 09:54:06;;;;;;;9.03;8.53;;;30.60;92.80;;;;;;5103993;28;20801;-65
2021/07/15 09:56:45;;;;;;;8.60;7.93;;;30.70;92.10;;;;;;5099841;28;20508;-64
2021/07/15 09:59:12;;;;;;;8.93;8.20;;;30.90;92.50;;;;;;5100560;28;20435;-64
2021/07/15 10:01:47;;;;;;;8.60;8.20;;;30.30;92.60;;;;;;5105503;28;20471;-65
2021/07/15 10:04:26;;;;;;;9.50;8.63;;;30.20;93.80;;;;;;5100242;28;20442;-64
2021/07/15 10:06:57;;;;;;;8.70;8.30;;;30.20;94.20;;;;;;5105719;28;20504;-64
2021/07/15 10:09:29;;;;;;;9.10;8.60;;;30.40;94.60;;;;;;5100038;28;20594;-63
2021/07/15 10:11:58;;;;;;;9.73;9.33;;;31.10;92.50;;;;;;5100308;28;20541;-65
2021/07/15 10:14:36;;;;;;;9.83;8.90;;;31.90;92.20;;;;;;5104072;28;20520;-63
2021/07/15 10:17:05;;;;;;;9.47;8.93;;;32.20;90.60;;;;;;5105705;28;20483;-63
2021/07/15 10:19:33;;;;;;;11.03;8.70;;;32.10;90.80;;;;;;5103797;28;20896;-63
2021/07/15 10:22:02;;;;;;;8.53;8.03;;;31.10;91.60;;;;;;5095687;28;20443;-63
2021/07/15 10:24:30;;;;;;;9.33;8.80;;;31.20;92.30;;;;;;5101760;28;20426;-64
2021/07/15 10:27:03;;;;;;;8.43;8.03;;;30.80;92.20;;;;;;5098365;28;20469;-62
2021/07/15 10:29:32;;;;;;;8.87;8.27;;;30.50;93.00;;;;;;5103299;28;20458;-62
2021/07/15 10:32:00;;;;;;;8.57;8.13;;;29.70;93.80;;;;;;5107878;28;20442;-64
2021/07/15 10:34:29;;;;;;;10.13;9.60;;;29.60;94.50;;;;;;5096739;28;20443;-64
2021/07/15 10:37:00;;;;;;;8.50;7.90;;;29.30;94.50;;;;;;5100219;28;20439;-66
2021/07/15 10:39:29;;;;;;;8.73;8.10;;;29.10;95.30;;;;;;5099355;28;20466;-63
2021/07/15 10:41:59;;;;;;;8.20;7.70;;;28.80;95.80;;;;;;5099481;28;20439;-63
2021/07/15 10:44:27;;;;;;;9.10;8.60;;;27.90;97.20;;;;;;5098941;28;20491;-63
2021/07/15 10:46:57;;;;;;;9.43;8.57;;;27.00;98.30;;;;;;5099453;28;20444;-64
2021/07/15 10:49:24;;;;;;;7.67;7.17;;;26.60;99.50;;;;;;5099289;28;20501;-63
2021/07/15 10:51:54;;;;;;;7.70;7.30;;;26.60;99.90;;;;;;5085817;28;20422;-62
2021/07/15 10:54:22;;;;;;;8.50;8.00;;;26.70;99.60;;;;;;5098793;28;20510;-62
2021/07/15 10:56:51;;;;;;;7.63;7.23;;;26.60;99.70;;;;;;5099245;28;20454;-63
2021/07/15 10:59:28;;;;;;;7.33;6.83;;;26.40;99.90;;;;;;5087731;28;20448;-65
2021/07/15 11:02:00;;;;;;;10.40;9.70;;;26.90;99.90;;;;;;5099376;28;20506;-63
2021/07/15 11:04:40;;;;;;;9.47;8.77;;;27.70;98.80;;;;;;5099649;28;20448;-64
2021/07/15 11:07:32;;;;;;;8.67;8.00;;;28.80;98.00;;;;;;5085370;28;20634;-64
2021/07/15 11:10:21;;;;;;;7.87;7.20;;;28.90;96.80;;;;;;5098725;28;20437;-63
2021/07/15 11:13:04;;;;;;;7.77;7.17;;;29.40;95.70;;;;;;5105706;28;20432;-63
2021/07/15 11:15:58;;;;;;;8.77;7.53;;;29.70;95.50;;;;;;5094228;28;20441;-64
2021/07/15 11:19:01;;;;;;;8.63;7.97;;;29.90;95.30;;;;;;5097345;28;20568;-63
2021/07/15 11:21:32;;;;;;;8.67;8.13;;;30.10;94.40;;;;;;5093214;28;20453;-63
2021/07/15 11:24:06;;;;;;;8.73;8.13;;;30.20;94.20;;;;;;5099373;28;20534;-64
2021/07/15 11:26:34;;;;;;;9.07;8.23;;;29.90;95.30;;;;;;5092374;28;20479;-64
2021/07/15 11:29:01;;;;;;;8.23;7.73;;;29.40;95.50;;;;;;5088220;28;20522;-63
2021/07/15 11:31:42;;;;;;;7.80;7.27;;;29.10;96.70;;;;;;5098077;28;20677;-63
2021/07/15 11:34:11;;;;;;;8.43;7.83;;;28.80;96.30;;;;;;5096595;28;20510;-63
2021/07/15 11:36:38;;;;;;;10.30;8.70;;;28.40;97.40;;;;;;5105462;28;20442;-62
2021/07/15 11:39:07;;;;;;;9.20;8.43;;;28.40;97.80;;;;;;5105423;28;20527;-63
2021/07/15 11:42:16;;;;;;;8.37;7.77;;;28.00;97.60;;;;;;5095398;28;20438;-64
2021/07/15 11:45:06;;;;;;;13.17;9.03;;;27.20;99.40;;;;;;5099978;28;20443;-63
2021/07/15 11:47:42;;;;;;;8.13;7.70;;;26.50;99.90;;;;;;5103488;28;20762;-64
2021/07/15 11:50:32;;;;;;;8.60;8.00;;;26.10;99.90;;;;;;5097794;28;20498;-63
2021/07/15 11:53:20;;;;;;;9.43;8.73;;;26.20;99.90;;;;;;5109027;28;20830;-63
2021/07/15 11:55:52;;;;;;;8.90;8.20;;;26.60;99.90;;;;;;5086980;28;20504;-63
2021/07/15 11:58:42;;;;;;;8.10;7.70;;;27.00;99.90;;;;;;5097335;28;20493;-63
2021/07/15 12:01:29;;;;;;;8.67;7.97;;;27.20;99.60;;;;;;5097783;28;20444;-62
2021/07/15 12:04:04;;;;;;;8.97;8.33;;;27.20;99.90;;;;;;5083771;28;20477;-64
2021/07/15 12:06:38;;;;;;;8.90;8.40;;;27.50;99.10;;;;;;5108786;28;20439;-63
2021/07/15 12:09:10;;;;;;;9.13;8.40;;;27.40;99.00;;;;;;5084495;28;20443;-62
2021/07/15 12:11:40;;;;;;;10.87;9.20;;;26.80;99.70;;;;;;5093340;28;20506;-62
2021/07/15 12:14:09;;;;;;;10.23;9.23;;;27.00;99.70;;;;;;5097076;28;20511;-63
2021/07/15 12:16:40;;;;;;;8.93;8.20;;;27.30;99.60;;;;;;5098883;28;20440;-64
2021/07/15 12:19:10;;;;;;;8.23;7.63;;;27.50;99.10;;;;;;5093377;28;20485;-62
2021/07/15 12:21:38;;;;;;;10.03;8.60;;;27.80;99.00;;;;;;5098968;28;20440;-63
2021/07/15 12:24:16;;;;;;;8.40;7.80;;;28.30;98.00;;;;;;5084947;28;20450;-64
2021/07/15 12:26:44;;;;;;;8.73;8.23;;;28.80;98.00;;;;;;5096850;28;22298;-63
2021/07/15 12:29:14;;;;;;;9.60;8.70;;;28.60;97.40;;;;;;5108265;28;20467;-62
2021/07/15 12:31:42;;;;;;;8.60;8.00;;;28.30;97.70;;;;;;5100442;28;20630;-63
2021/07/15 12:34:12;;;;;;;7.87;7.37;;;28.30;97.90;;;;;;5108037;28;21039;-64
2021/07/15 12:36:40;;;;;;;8.10;7.70;;;28.50;98.30;;;;;;5100158;28;20568;-63
2021/07/15 12:39:13;;;;;;;8.27;7.77;;;28.50;98.60;;;;;;5103258;28;20482;-64
2021/07/15 12:41:46;;;;;;;9.83;9.10;;;28.20;97.70;;;;;;5097725;28;20437;-62
2021/07/15 12:44:14;;;;;;;8.43;7.83;;;27.80;98.30;;;;;;5112130;28;20441;-63
2021/07/15 12:46:48;;;;;;;9.00;8.30;;;27.90;98.90;;;;;;5109943;28;20442;-64
2021/07/15 12:49:18;;;;;;;8.80;8.30;;;28.30;98.10;;;;;;5097418;28;20470;-64
2021/07/15 12:51:49;;;;;;;8.63;8.03;;;28.30;97.60;;;;;;5100950;28;20513;-63
2021/07/15 12:54:33;;;;;;;9.27;8.67;;;28.40;97.40;;;;;;5098469;28;20455;-63
2021/07/15 12:57:10;;;;;;;8.40;7.80;;;28.60;97.10;;;;;;5110952;28;20474;-62
2021/07/15 12:59:40;;;;;;;10.03;8.43;;;28.30;97.90;;;;;;5094957;28;20695;-61